Time;durP1;ratioP1;P1;durP2;ratioP2;P2;SDS_P1;SDS_P2;PMS_P1;PMS_P2;Temp;Humidity;BMP_temperature;BMP_pressure;BME280_temperature;BME280_humidity;BME280_pressure;Samples;Min_cycle;Max_cycle;Signal;HPM_P1;HPM_P2
2024/01/20 00:00:13;;;;;;;4.00;2.50;;;;;;;-140.33;100.00;61596.09;5021235;28;20072;-78
2024/01/20 00:02:39;;;;;;;4.40;2.75;;;;;;;-140.33;100.00;61596.09;5012334;28;20038;-78
2024/01/20 00:05:04;;;;;;;3.70;2.45;;;;;;;-140.33;100.00;61596.09;5012142;28;20091;-82
2024/01/20 00:07:31;;;;;;;3.50;2.50;;;;;;;-140.33;100.00;61596.09;5011406;28;20040;-80
2024/01/20 00:09:56;;;;;;;4.20;3.08;;;;;;;-140.33;100.00;61596.09;5016731;28;20034;-78
2024/01/20 00:12:21;;;;;;;3.90;2.58;;;;;;;-140.33;100.00;61596.09;5012571;28;20464;-80
2024/01/20 00:14:47;;;;;;;4.57;2.63;;;;;;;-140.33;100.00;61596.09;5023391;28;20033;-78
2024/01/20 00:17:13;;;;;;;4.63;3.28;;;;;;;-140.33;100.00;61596.09;5022572;28;20026;-77
2024/01/20 00:19:38;;;;;;;3.33;2.40;;;;;;;-140.33;100.00;61596.09;5020105;28;20030;-75
2024/01/20 00:22:03;;;;;;;2.88;2.17;;;;;;;-140.33;100.00;61596.09;5018807;28;20488;-75
2024/01/20 00:24:29;;;;;;;3.08;2.00;;;;;;;-140.33;100.00;61596.09;5010838;28;20033;-76
2024/01/20 00:26:55;;;;;;;3.08;2.00;;;;;;;-140.33;100.00;61596.09;5021464;28;20065;-76
2024/01/20 00:29:20;;;;;;;2.78;1.90;;;;;;;-140.33;100.00;61596.09;5017482;28;20030;-79
2024/01/20 00:31:47;;;;;;;3.03;1.80;;;;;;;-140.33;100.00;61596.09;5012586;28;20041;-77
2024/01/20 00:34:12;;;;;;;3.10;2.25;;;;;;;-140.33;100.00;61596.09;5011419;28;20140;-76
2024/01/20 00:36:38;;;;;;;2.67;2.10;;;;;;;-140.33;100.00;61596.09;5023921;28;20061;-76
2024/01/20 00:39:04;;;;;;;2.95;1.95;;;;;;;-140.33;100.00;61596.09;5020922;28;20026;-76
2024/01/20 00:41:30;;;;;;;4.07;2.25;;;;;;;-140.33;100.00;61596.09;5022574;28;20041;-76
2024/01/20 00:43:55;;;;;;;2.72;2.00;;;;;;;-140.33;100.00;61596.09;5023702;28;20034;-75
2024/01/20 00:46:21;;;;;;;4.20;2.58;;;;;;;-140.33;100.00;61596.09;5020251;28;20030;-77
2024/01/20 00:48:46;;;;;;;3.03;2.30;;;;;;;-140.33;100.00;61596.09;5017053;28;20479;-76
2024/01/20 00:51:12;;;;;;;3.17;2.38;;;;;;;-140.33;100.00;61596.09;5012685;28;20064;-76
2024/01/20 00:53:37;;;;;;;3.95;2.15;;;;;;;-140.33;100.00;61596.09;5020849;28;20049;-76
2024/01/20 00:56:03;;;;;;;5.40;2.60;;;;;;;-140.33;100.00;61596.09;5024440;28;20558;-76
2024/01/20 00:58:28;;;;;;;5.70;2.35;;;;;;;-140.33;100.00;61596.09;5017984;28;20034;-76
2024/01/20 01:00:54;;;;;;;2.47;2.13;;;;;;;-140.33;100.00;61596.09;5021781;28;20495;-75
2024/01/20 01:03:20;;;;;;;3.85;2.38;;;;;;;-140.33;100.00;61596.09;5010787;28;20095;-76
2024/01/20 01:05:46;;;;;;;2.50;2.05;;;;;;;-140.33;100.00;61596.09;5019218;28;20034;-75
2024/01/20 01:08:11;;;;;;;3.40;2.40;;;;;;;-140.33;100.00;61596.09;5020214;28;20033;-76
2024/01/20 01:10:36;;;;;;;3.50;2.30;;;;;;;-140.33;100.00;61596.09;5021725;28;20072;-75
2024/01/20 01:13:02;;;;;;;3.45;2.00;;;;;;;-140.33;100.00;61596.09;5019883;28;20033;-76
2024/01/20 01:15:29;;;;;;;3.40;2.10;;;;;;;-140.33;100.00;61596.09;5022513;28;20034;-77
2024/01/20 01:17:55;;;;;;;2.78;1.80;;;;;;;-140.33;100.00;61596.09;5011631;28;20407;-78
2024/01/20 01:20:20;;;;;;;3.35;1.90;;;;;;;-140.33;100.00;61596.09;5011003;28;20033;-77
2024/01/20 01:22:46;;;;;;;3.25;2.00;;;;;;;-140.33;100.00;61596.09;5017943;28;20029;-76
2024/01/20 01:25:12;;;;;;;2.53;1.92;;;;;;;-140.33;100.00;61596.09;5019050;28;20172;-78
2024/01/20 01:27:37;;;;;;;2.63;1.92;;;;;;;-140.33;100.00;61596.09;5011527;28;20061;-78
2024/01/20 01:30:04;;;;;;;2.97;2.00;;;;;;;-140.33;100.00;61596.09;5033118;28;20037;-78
2024/01/20 01:32:29;;;;;;;2.90;1.92;;;;;;;-140.33;100.00;61596.09;5024011;28;20040;-78
2024/01/20 01:34:54;;;;;;;3.20;1.70;;;;;;;-140.33;100.00;61596.09;5011636;28;20033;-77
2024/01/20 01:37:20;;;;;;;3.53;2.10;;;;;;;-140.33;100.00;61596.09;5024256;28;20459;-76
2024/01/20 01:39:45;;;;;;;2.50;2.00;;;;;;;-140.33;100.00;61596.09;5022578;28;20152;-77
2024/01/20 01:42:11;;;;;;;2.97;2.10;;;;;;;-140.33;100.00;61596.09;5020677;28;20025;-77
2024/01/20 01:44:36;;;;;;;3.42;2.20;;;;;;;-140.33;100.00;61596.09;5006935;28;20040;-75
2024/01/20 01:47:02;;;;;;;3.03;2.00;;;;;;;-140.33;100.00;61596.09;5011574;28;20033;-77
2024/01/20 01:49:27;;;;;;;2.70;1.85;;;;;;;-140.33;100.00;61596.09;5018612;28;20037;-77
2024/01/20 01:51:53;;;;;;;2.58;2.05;;;;;;;-140.33;100.00;61596.09;5009829;28;20088;-76
2024/01/20 01:54:19;;;;;;;4.20;1.80;;;;;;;-140.33;100.00;61596.09;5015595;28;20034;-77
2024/01/20 01:56:47;;;;;;;2.80;1.88;;;;;;;-140.33;100.00;61596.09;5017501;28;20038;-77
2024/01/20 01:59:14;;;;;;;2.70;2.00;;;;;;;-140.33;100.00;61596.09;5012631;28;20033;-77
2024/01/20 02:01:40;;;;;;;8.10;2.17;;;;;;;-140.33;100.00;61596.09;5023958;28;20034;-78
2024/01/20 02:04:05;;;;;;;2.13;1.70;;;;;;;-140.33;100.00;61596.09;5026444;28;20043;-78
2024/01/20 02:06:31;;;;;;;3.28;1.70;;;;;;;-140.33;100.00;61596.09;5012064;28;20450;-79
2024/01/20 02:08:57;;;;;;;2.53;1.90;;;;;;;-140.33;100.00;61596.09;5008775;28;20014;-78
2024/01/20 02:11:23;;;;;;;2.15;1.55;;;;;;;-140.33;100.00;61596.09;5018855;28;20026;-78
2024/01/20 02:13:50;;;;;;;2.80;1.70;;;;;;;-140.33;100.00;61596.09;5010496;28;20104;-78
2024/01/20 02:16:16;;;;;;;3.20;1.63;;;;;;;-140.33;100.00;61596.09;5015235;28;20030;-77
2024/01/20 02:18:41;;;;;;;2.75;1.80;;;;;;;-140.33;100.00;61596.09;5021682;28;20464;-76
2024/01/20 02:21:07;;;;;;;2.97;1.83;;;;;;;-140.33;100.00;61596.09;5021839;28;20060;-76
2024/01/20 02:23:38;;;;;;;2.22;1.73;;;;;;;-140.33;100.00;61596.09;5027886;28;20029;-78
2024/01/20 02:26:04;;;;;;;3.35;2.20;;;;;;;-140.33;100.00;61596.09;5024757;28;20084;-78
2024/01/20 02:28:29;;;;;;;3.10;2.20;;;;;;;-140.33;100.00;61596.09;5020491;28;20029;-78
2024/01/20 02:30:55;;;;;;;2.83;2.10;;;;;;;-140.33;100.00;61596.09;5025103;28;20039;-78
2024/01/20 02:33:20;;;;;;;3.00;2.13;;;;;;;-140.33;100.00;61596.09;5013604;28;20373;-77
2024/01/20 02:35:46;;;;;;;2.92;1.80;;;;;;;-140.33;100.00;61596.09;5015267;28;20033;-78
2024/01/20 02:38:11;;;;;;;2.88;1.73;;;;;;;-140.33;100.00;61596.09;5024720;28;20108;-77
2024/01/20 02:40:36;;;;;;;3.33;1.73;;;;;;;-140.33;100.00;61596.09;5022304;28;20383;-77
2024/01/20 02:43:02;;;;;;;2.90;1.88;;;;;;;-140.33;100.00;61596.09;5022920;28;20048;-77
2024/01/20 02:45:28;;;;;;;4.38;1.92;;;;;;;-140.33;100.00;61596.09;5021878;28;20071;-75
2024/01/20 02:47:54;;;;;;;2.60;1.48;;;;;;;-140.33;100.00;61596.09;5019661;28;20040;-75
2024/01/20 02:50:20;;;;;;;4.40;1.90;;;;;;;-140.33;100.00;61596.09;5026673;28;20026;-77
2024/01/20 02:52:45;;;;;;;3.42;1.80;;;;;;;-140.33;100.00;61596.09;5010673;28;20042;-76
2024/01/20 02:55:11;;;;;;;3.60;2.13;;;;;;;-140.33;100.00;61596.09;5016557;28;20067;-76
2024/01/20 02:57:36;;;;;;;2.70;1.80;;;;;;;-140.33;100.00;61596.09;5012370;28;20076;-78
2024/01/20 03:00:04;;;;;;;3.97;1.90;;;;;;;-140.33;100.00;61596.09;5023049;28;20034;-77
2024/01/20 03:02:29;;;;;;;3.58;2.10;;;;;;;-140.33;100.00;61596.09;5022942;28;20029;-77
2024/01/20 03:05:00;;;;;;;3.38;2.00;;;;;;;-140.33;100.00;61596.09;5022268;28;20040;-76
2024/01/20 03:07:25;;;;;;;2.40;1.80;;;;;;;-140.33;100.00;61596.09;5013529;28;20040;-76
2024/01/20 03:09:50;;;;;;;3.72;1.83;;;;;;;-140.33;100.00;61596.09;5023622;28;20033;-77
2024/01/20 03:12:16;;;;;;;2.53;2.08;;;;;;;-140.33;100.00;61596.09;5010209;28;20030;-76
2024/01/20 03:14:41;;;;;;;2.47;1.70;;;;;;;-140.33;100.00;61596.09;5014727;28;20076;-75
2024/01/20 03:17:07;;;;;;;4.05;2.00;;;;;;;-140.33;100.00;61596.09;5019285;28;20488;-75
2024/01/20 03:19:32;;;;;;;2.55;1.90;;;;;;;-140.33;100.00;61596.09;5024469;28;20084;-76
2024/01/20 03:21:58;;;;;;;3.05;1.90;;;;;;;-140.33;100.00;61596.09;5022424;28;20029;-77
2024/01/20 03:24:23;;;;;;;2.92;1.98;;;;;;;-140.33;100.00;61596.09;5022734;28;20095;-76
2024/01/20 03:26:49;;;;;;;2.75;1.90;;;;;;;-140.33;100.00;61596.09;5020264;28;20068;-76
2024/01/20 03:29:15;;;;;;;3.60;1.95;;;;;;;-140.33;100.00;61596.09;5019423;28;20598;-76
2024/01/20 03:31:41;;;;;;;2.80;2.15;;;;;;;-140.33;100.00;61596.09;5022043;28;20087;-77
2024/01/20 03:34:06;;;;;;;2.95;2.00;;;;;;;-140.33;100.00;61596.09;5010354;28;20442;-75
2024/01/20 03:36:32;;;;;;;2.47;1.80;;;;;;;-140.33;100.00;61596.09;5018093;28;20034;-77
2024/01/20 03:38:57;;;;;;;3.47;2.08;;;;;;;-140.33;100.00;61596.09;5021958;28;20041;-77
2024/01/20 03:41:22;;;;;;;2.67;2.20;;;;;;;-140.33;100.00;61596.09;5011394;28;20041;-78
2024/01/20 03:43:48;;;;;;;3.63;2.05;;;;;;;-140.33;100.00;61596.09;5012176;28;20556;-76
2024/01/20 03:46:17;;;;;;;3.22;1.80;;;;;;;-140.33;100.00;61596.09;5020730;28;20083;-75
2024/01/20 03:48:42;;;;;;;3.08;2.17;;;;;;;-140.33;100.00;61596.09;5011498;28;20106;-77
2024/01/20 03:51:09;;;;;;;2.85;2.20;;;;;;;-140.33;100.00;61596.09;5010353;28;20116;-76
2024/01/20 03:53:34;;;;;;;3.60;2.60;;;;;;;-140.33;100.00;61596.09;5011162;28;20053;-75
2024/01/20 03:56:03;;;;;;;3.78;2.40;;;;;;;-140.33;100.00;61596.09;5017096;28;20109;-76
2024/01/20 03:58:29;;;;;;;5.32;3.03;;;;;;;-140.33;100.00;61596.09;5023091;28;20021;-77
2024/01/20 04:00:54;;;;;;;3.53;2.90;;;;;;;-140.33;100.00;61596.09;5018557;28;20064;-77
2024/01/20 04:03:20;;;;;;;3.78;2.95;;;;;;;-140.33;100.00;61596.09;5011820;28;20044;-76
2024/01/20 04:05:47;;;;;;;4.18;3.03;;;;;;;-140.33;100.00;61596.09;5019883;28;20033;-77
2024/01/20 04:08:13;;;;;;;3.78;2.88;;;;;;;-140.33;100.00;61596.09;5019055;28;20026;-77
2024/01/20 04:10:38;;;;;;;3.83;3.05;;;;;;;-140.33;100.00;61596.09;5010988;28;20025;-77
2024/01/20 04:13:04;;;;;;;4.75;3.67;;;;;;;-140.33;100.00;61596.09;5022704;28;20038;-77
2024/01/20 04:15:29;;;;;;;6.97;4.28;;;;;;;-140.33;100.00;61596.09;5019038;28;20037;-75
2024/01/20 04:17:55;;;;;;;4.07;2.88;;;;;;;-140.33;100.00;61596.09;5018679;28;20026;-80
2024/01/20 04:20:20;;;;;;;3.30;3.00;;;;;;;-140.33;100.00;61596.09;5024982;28;20032;-75
2024/01/20 04:22:46;;;;;;;4.28;3.00;;;;;;;-140.33;100.00;61596.09;5021096;28;20412;-75
2024/01/20 04:25:12;;;;;;;4.35;3.00;;;;;;;-140.33;100.00;61596.09;5020306;28;20037;-77
2024/01/20 04:27:40;;;;;;;3.70;2.75;;;;;;;-140.33;100.00;61596.09;5005067;28;20092;-75
2024/01/20 04:30:07;;;;;;;4.88;2.75;;;;;;;-140.33;100.00;61596.09;5024251;28;20121;-76
2024/01/20 04:32:33;;;;;;;4.55;2.83;;;;;;;-140.33;100.00;61596.09;5017605;28;20057;-75
2024/01/20 04:34:58;;;;;;;5.10;3.33;;;;;;;-140.33;100.00;61596.09;5015545;28;20026;-75
2024/01/20 04:37:24;;;;;;;4.47;3.13;;;;;;;-140.33;100.00;61596.09;5020397;28;20033;-78
2024/01/20 04:39:49;;;;;;;4.65;3.00;;;;;;;-140.33;100.00;61596.09;5007147;28;20025;-77
2024/01/20 04:42:14;;;;;;;4.35;3.25;;;;;;;-140.33;100.00;61596.09;5015733;28;20037;-77
2024/01/20 04:44:40;;;;;;;4.30;2.70;;;;;;;-140.33;100.00;61596.09;5020397;28;20038;-77
2024/01/20 04:47:05;;;;;;;2.85;2.45;;;;;;;-140.33;100.00;61596.09;5020234;28;20416;-77
2024/01/20 04:49:31;;;;;;;3.50;2.70;;;;;;;-140.33;100.00;61596.09;5018929;28;20079;-77
2024/01/20 04:52:01;;;;;;;3.13;2.70;;;;;;;-140.33;100.00;61596.09;5010989;28;20079;-76
2024/01/20 04:54:27;;;;;;;3.80;2.50;;;;;;;-140.33;100.00;61596.09;5021345;28;20022;-77
2024/01/20 04:56:52;;;;;;;3.28;2.40;;;;;;;-140.33;100.00;61596.09;5021046;28;20041;-77
2024/01/20 04:59:17;;;;;;;3.28;2.65;;;;;;;-140.33;100.00;61596.09;5020873;28;20025;-75
2024/01/20 05:01:45;;;;;;;3.30;2.85;;;;;;;-140.33;100.00;61596.09;5023068;28;20026;-75
2024/01/20 05:04:11;;;;;;;4.25;2.63;;;;;;;-140.33;100.00;61596.09;5010496;28;20033;-76
2024/01/20 05:06:36;;;;;;;3.47;2.70;;;;;;;-140.33;100.00;61596.09;5011605;28;20025;-77
2024/01/20 05:09:02;;;;;;;3.42;3.13;;;;;;;-140.33;100.00;61596.09;5016349;28;20041;-76
2024/01/20 05:11:28;;;;;;;9.63;4.07;;;;;;;-140.33;100.00;61596.09;5010660;28;20047;-75
2024/01/20 05:13:53;;;;;;;3.20;2.80;;;;;;;-140.33;100.00;61596.09;5019472;28;20492;-77
2024/01/20 05:16:19;;;;;;;4.22;3.30;;;;;;;-140.33;100.00;61596.09;5026569;28;20041;-74
2024/01/20 05:18:44;;;;;;;2.70;2.30;;;;;;;-140.33;100.00;61596.09;5016358;28;20061;-76
2024/01/20 05:21:16;;;;;;;3.90;3.10;;;;;;;-140.33;100.00;61596.09;5024052;28;20568;-75
2024/01/20 05:23:41;;;;;;;1.55;1.25;;;;;;;-140.33;100.00;61596.09;5018203;28;20503;-76
2024/01/20 05:26:06;;;;;;;2.03;1.83;;;;;;;-140.33;100.00;61596.09;5011205;28;20041;-76
2024/01/20 05:28:32;;;;;;;2.45;1.88;;;;;;;-140.33;100.00;61596.09;5021859;28;20099;-75
2024/01/20 05:30:58;;;;;;;2.28;1.70;;;;;;;-140.33;100.00;61596.09;5022937;28;20037;-74
2024/01/20 05:33:23;;;;;;;2.60;1.50;;;;;;;-140.33;100.00;61596.09;5020944;28;20502;-77
2024/01/20 05:35:49;;;;;;;2.03;1.38;;;;;;;-140.33;100.00;61596.09;5010744;28;20025;-77
2024/01/20 05:38:14;;;;;;;2.25;1.65;;;;;;;-140.33;100.00;61596.09;5018406;28;20032;-77
2024/01/20 05:40:40;;;;;;;2.75;1.48;;;;;;;-140.33;100.00;61596.09;5017897;28;20041;-77
2024/01/20 05:43:06;;;;;;;2.25;1.60;;;;;;;-140.33;100.00;61596.09;5012180;28;20102;-76
2024/01/20 05:45:31;;;;;;;4.78;2.60;;;;;;;-140.33;100.00;61596.09;5023977;28;20033;-76
2024/01/20 05:47:57;;;;;;;3.33;1.98;;;;;;;-140.33;100.00;61596.09;5009209;28;20177;-75
2024/01/20 05:50:22;;;;;;;1.83;1.05;;;;;;;-140.33;100.00;61596.09;5022552;28;20511;-76
2024/01/20 05:52:48;;;;;;;1.58;1.00;;;;;;;-140.33;100.00;61596.09;5022453;28;20124;-76
2024/01/20 05:55:14;;;;;;;1.70;0.98;;;;;;;-140.33;100.00;61596.09;5026111;28;20781;-76
2024/01/20 05:57:39;;;;;;;2.55;0.70;;;;;;;-140.33;100.00;61596.09;5025269;28;20033;-77
2024/01/20 06:00:05;;;;;;;0.93;0.70;;;;;;;-140.33;100.00;61596.09;5022843;28;20116;-76
2024/01/20 06:02:30;;;;;;;1.20;0.90;;;;;;;-140.33;100.00;61596.09;5014121;28;20033;-75
2024/01/20 06:04:56;;;;;;;0.98;0.65;;;;;;;-140.33;100.00;61596.09;5024287;28;20044;-79
2024/01/20 06:07:21;;;;;;;1.70;1.02;;;;;;;-140.33;100.00;61596.09;5012660;28;20104;-75
2024/01/20 06:09:46;;;;;;;2.65;0.80;;;;;;;-140.33;100.00;61596.09;5020849;28;20033;-78
2024/01/20 06:12:14;;;;;;;2.33;1.58;;;;;;;-140.33;100.00;61596.09;5023120;28;20705;-78
2024/01/20 06:14:40;;;;;;;2.20;1.23;;;;;;;-140.33;100.00;61596.09;5022042;28;20084;-79
2024/01/20 06:17:05;;;;;;;2.72;1.63;;;;;;;-140.33;100.00;61596.09;5012768;28;20037;-80
2024/01/20 06:19:31;;;;;;;5.35;2.50;;;;;;;-140.33;100.00;61596.09;5020832;28;20494;-77
2024/01/20 06:21:56;;;;;;;6.30;4.40;;;;;;;-140.33;100.00;61596.09;5015283;28;20064;-79
2024/01/20 06:24:21;;;;;;;3.70;2.90;;;;;;;-140.33;100.00;61596.09;5014005;28;20041;-79
2024/01/20 06:26:47;;;;;;;3.53;2.55;;;;;;;-140.33;100.00;61596.09;5014859;28;20029;-79
2024/01/20 06:29:13;;;;;;;5.57;3.70;;;;;;;-140.33;100.00;61596.09;5023830;28;20484;-80
2024/01/20 06:31:38;;;;;;;6.30;4.57;;;;;;;-140.33;100.00;61596.09;5022522;28;20059;-79
2024/01/20 06:34:04;;;;;;;2.70;1.83;;;;;;;-140.33;100.00;61596.09;5011870;28;20067;-78
2024/01/20 06:36:29;;;;;;;3.20;2.53;;;;;;;-140.33;100.00;61596.09;5022992;28;20459;-79
2024/01/20 06:38:54;;;;;;;4.00;2.92;;;;;;;-140.33;100.00;61596.09;5021049;28;20471;-78
2024/01/20 06:41:20;;;;;;;3.47;2.88;;;;;;;-140.33;100.00;61596.09;5024748;28;20026;-79
2024/01/20 06:43:45;;;;;;;3.17;2.10;;;;;;;-140.33;100.00;61596.09;5022853;28;20045;-78
2024/01/20 06:46:11;;;;;;;3.47;2.13;;;;;;;-140.33;100.00;61596.09;5013947;28;20461;-78
2024/01/20 06:48:36;;;;;;;4.47;3.95;;;;;;;-140.33;100.00;61596.09;5020789;28;20033;-80
2024/01/20 06:51:03;;;;;;;2.45;1.98;;;;;;;-140.33;100.00;61596.09;5021610;28;20046;-77
2024/01/20 06:53:29;;;;;;;4.28;3.25;;;;;;;-140.33;100.00;61596.09;5023855;28;20080;-77
2024/01/20 06:55:56;;;;;;;3.15;2.22;;;;;;;-140.33;100.00;61596.09;5017585;28;20041;-77
2024/01/20 06:58:22;;;;;;;3.00;1.92;;;;;;;-140.33;100.00;61596.09;5009387;28;20029;-79
2024/01/20 07:00:47;;;;;;;2.42;1.20;;;;;;;-140.33;100.00;61596.09;5026525;28;20037;-77
2024/01/20 07:03:14;;;;;;;2.50;1.70;;;;;;;-140.33;100.00;61596.09;5026864;28;20076;-75
2024/01/20 07:05:39;;;;;;;2.75;1.73;;;;;;;-140.33;100.00;61596.09;5023246;28;20047;-76
2024/01/20 07:08:05;;;;;;;4.45;3.15;;;;;;;-140.33;100.00;61596.09;4659725;28;10000392;-75
2024/01/20 07:10:30;;;;;;;5.65;4.10;;;;;;;-140.33;100.00;61596.09;5011803;28;20038;-75
2024/01/20 07:12:56;;;;;;;3.65;2.22;;;;;;;-140.33;100.00;61596.09;5006110;28;20032;-73
2024/01/20 07:15:22;;;;;;;5.40;2.10;;;;;;;-140.33;100.00;61596.09;5018426;28;20145;-74
2024/01/20 07:17:47;;;;;;;7.90;2.80;;;;;;;-140.33;100.00;61596.09;5002349;28;20025;-75
2024/01/20 07:20:13;;;;;;;5.82;3.00;;;;;;;-140.33;100.00;61596.09;5019769;28;20038;-76
2024/01/20 07:22:41;;;;;;;4.30;2.70;;;;;;;-140.33;100.00;61596.09;5017169;28;20068;-72
2024/01/20 07:25:07;;;;;;;3.83;2.58;;;;;;;-140.33;100.00;61596.09;5002131;28;20172;-75
2024/01/20 07:27:33;;;;;;;2.83;2.20;;;;;;;-140.33;100.00;61596.09;5001411;28;20037;-74
2024/01/20 07:29:58;;;;;;;1.83;1.30;;;;;;;-140.33;100.00;61596.09;5001180;28;20029;-73
2024/01/20 07:32:24;;;;;;;3.30;2.25;;;;;;;-140.33;100.00;61596.09;5017494;28;20038;-74
2024/01/20 07:34:49;;;;;;;3.75;2.20;;;;;;;-140.33;100.00;61596.09;4999118;28;20038;-73
2024/01/20 07:37:14;;;;;;;4.43;2.63;;;;;;;-140.33;100.00;61596.09;5002217;28;20409;-74
2024/01/20 07:39:40;;;;;;;7.00;3.45;;;;;;;-140.33;100.00;61596.09;5000524;28;20026;-75
2024/01/20 07:42:05;;;;;;;4.78;3.20;;;;;;;-140.33;100.00;61596.09;5001460;28;20029;-74
2024/01/20 07:44:31;;;;;;;5.53;3.67;;;;;;;-140.33;100.00;61596.09;5017396;28;21666;-74
2024/01/20 07:46:57;;;;;;;4.25;2.88;;;;;;;-140.33;100.00;61596.09;5011581;28;20041;-75
2024/01/20 07:49:23;;;;;;;3.70;2.65;;;;;;;-140.33;100.00;61596.09;5012272;28;20030;-71
2024/01/20 07:51:49;;;;;;;4.18;2.90;;;;;;;-140.33;100.00;61596.09;5002348;28;20193;-74
2024/01/20 07:54:16;;;;;;;3.95;2.97;;;;;;;-140.33;100.00;61596.09;5001826;28;20581;-73
2024/01/20 07:56:41;;;;;;;6.15;3.22;;;;;;;-140.33;100.00;61596.09;5016973;28;20113;-70
2024/01/20 07:59:07;;;;;;;4.00;3.20;;;;;;;-140.33;100.00;61596.09;5017432;28;20462;-72
2024/01/20 08:01:32;;;;;;;4.13;2.67;;;;;;;-140.33;100.00;61596.09;5019335;28;20030;-73
2024/01/20 08:03:58;;;;;;;77.63;11.45;;;;;;;-140.33;100.00;61596.09;5003616;28;20033;-73
2024/01/20 08:06:23;;;;;;;8.48;4.50;;;;;;;-140.33;100.00;61596.09;5002611;28;20036;-73
2024/01/20 08:08:49;;;;;;;7.32;5.22;;;;;;;-140.33;100.00;61596.09;5016181;28;20064;-73
2024/01/20 08:11:14;;;;;;;7.90;5.70;;;;;;;-140.33;100.00;61596.09;5001207;28;20553;-73
2024/01/20 08:13:39;;;;;;;10.52;7.20;;;;;;;-140.33;100.00;61596.09;5019096;28;20492;-73
2024/01/20 08:16:07;;;;;;;14.13;9.35;;;;;;;-140.33;100.00;61596.09;5000058;28;20120;-76
2024/01/20 08:18:32;;;;;;;5.80;4.60;;;;;;;-140.33;100.00;61596.09;4999881;28;20064;-74
2024/01/20 08:20:57;;;;;;;7.07;4.95;;;;;;;-140.33;100.00;61596.09;5017631;28;20134;-74
2024/01/20 08:23:23;;;;;;;5.03;3.53;;;;;;;-140.33;100.00;61596.09;5012378;28;20062;-78
2024/01/20 08:25:49;;;;;;;7.72;4.63;;;;;;;-140.33;100.00;61596.09;5013062;28;20038;-73
2024/01/20 08:28:15;;;;;;;8.07;4.28;;;;;;;-140.33;100.00;61596.09;5014138;28;20037;-75
2024/01/20 08:30:41;;;;;;;71.95;11.93;;;;;;;-140.33;100.00;61596.09;5016319;28;20030;-73
2024/01/20 08:33:06;;;;;;;21.10;7.53;;;;;;;-140.33;100.00;61596.09;4998496;28;20037;-74
2024/01/20 08:35:33;;;;;;;8.30;5.43;;;;;;;-140.33;100.00;61596.09;5001639;28;20033;-76
2024/01/20 08:37:58;;;;;;;8.20;6.07;;;;;;;-140.33;100.00;61596.09;5011561;28;20048;-74
2024/01/20 08:40:24;;;;;;;6.80;4.97;;;;;;;-140.33;100.00;61596.09;5014936;28;20351;-75
2024/01/20 08:42:49;;;;;;;8.80;5.07;;;;;;;-140.33;100.00;61596.09;5001644;28;20042;-75
2024/01/20 08:45:15;;;;;;;8.32;4.95;;;;;;;-140.33;100.00;61596.09;5013584;28;20128;-75
2024/01/20 08:47:40;;;;;;;12.77;6.57;;;;;;;-140.33;100.00;61596.09;5015433;28;20770;-75
2024/01/20 08:50:06;;;;;;;17.35;4.32;;;;;;;-140.33;100.00;61596.09;5015023;28;20029;-77
2024/01/20 08:52:31;;;;;;;6.70;3.92;;;;;;;-140.33;100.00;61596.09;5011999;28;20088;-76
2024/01/20 08:54:58;;;;;;;8.27;4.00;;;;;;;-140.33;100.00;61596.09;5014682;28;20124;-74
2024/01/20 08:57:23;;;;;;;6.95;4.53;;;;;;;-140.33;100.00;61596.09;5014953;28;20033;-71
2024/01/20 08:59:50;;;;;;;5.15;3.33;;;;;;;-140.33;100.00;61596.09;5015639;28;20029;-73
2024/01/20 09:02:15;;;;;;;4.10;2.95;;;;;;;-140.33;100.00;61596.09;5010438;28;20476;-74
2024/01/20 09:04:40;;;;;;;5.93;3.28;;;;;;;-140.33;100.00;61596.09;5007503;28;20086;-73
2024/01/20 09:07:06;;;;;;;7.15;3.38;;;;;;;-140.33;100.00;61596.09;5013003;28;20053;-73
2024/01/20 09:09:31;;;;;;;7.80;3.85;;;;;;;-140.33;100.00;61596.09;5017733;28;20396;-73
2024/01/20 09:11:57;;;;;;;8.70;6.10;;;;;;;-140.33;100.00;61596.09;5015995;28;20550;-74
2024/01/20 09:14:23;;;;;;;42.80;35.33;;;;;;;-140.33;100.00;61596.09;5000504;28;20045;-73
2024/01/20 09:16:48;;;;;;;52.33;31.77;;;;;;;-140.33;100.00;61596.09;5014151;28;20034;-76
2024/01/20 09:19:13;;;;;;;102.22;58.85;;;;;;;-140.33;100.00;61596.09;5001604;28;20732;-74
2024/01/20 09:21:43;;;;;;;395.65;250.27;;;;;;;-140.33;100.00;61596.09;5016266;28;20045;-73
2024/01/20 09:24:09;;;;;;;224.07;121.07;;;;;;;-140.33;100.00;61596.09;5015358;28;20025;-79
2024/01/20 09:26:34;;;;;;;127.20;73.20;;;;;;;-140.33;100.00;61596.09;4998130;28;20478;-74
2024/01/20 09:28:59;;;;;;;62.65;41.28;;;;;;;-140.33;100.00;61596.09;4997342;28;20065;-74
2024/01/20 09:31:25;;;;;;;55.38;41.50;;;;;;;-140.33;100.00;61596.09;5016413;28;20038;-78
2024/01/20 09:33:50;;;;;;;24.42;18.42;;;;;;;-140.33;100.00;61596.09;5001199;28;20510;-75
2024/01/20 09:36:16;;;;;;;9.45;6.90;;;;;;;-140.33;100.00;61596.09;5017685;28;20384;-78
2024/01/20 09:38:41;;;;;;;5.10;3.90;;;;;;;-140.33;100.00;61596.09;5014945;28;20543;-77
2024/01/20 09:41:09;;;;;;;25.25;17.92;;;;;;;-140.33;100.00;61596.09;5001591;28;20029;-77
2024/01/20 09:43:38;;;;;;;3.88;2.55;;;;;;;-140.33;100.00;61596.09;5001282;28;20053;-74
2024/01/20 09:46:03;;;;;;;26.65;20.52;;;;;;;-140.33;100.00;61596.09;4999758;28;20033;-76
2024/01/20 09:48:29;;;;;;;22.58;15.52;;;;;;;-140.33;100.00;61596.09;5019020;28;20053;-75
2024/01/20 09:50:54;;;;;;;26.85;17.55;;;;;;;-140.33;100.00;61596.09;4997030;28;20405;-76
2024/01/20 09:53:20;;;;;;;84.38;61.10;;;;;;;-140.33;100.00;61596.09;5002940;28;20228;-77
2024/01/20 09:55:46;;;;;;;21.55;18.48;;;;;;;-140.33;100.00;61596.09;5014972;28;20029;-76
2024/01/20 09:58:13;;;;;;;10.05;8.88;;;;;;;-140.33;100.00;61596.09;5012505;28;20037;-72
2024/01/20 10:00:40;;;;;;;9.10;6.43;;;;;;;-140.33;100.00;61596.09;5013102;28;20033;-75
2024/01/20 10:03:08;;;;;;;81.28;46.65;;;;;;;-140.33;100.00;61596.09;4998064;28;20037;-74
2024/01/20 10:05:34;;;;;;;20.17;13.88;;;;;;;-140.33;100.00;61596.09;5001937;28;20084;-73
2024/01/20 10:08:00;;;;;;;7.75;5.68;;;;;;;-140.33;100.00;61596.09;4999612;28;20033;-73
2024/01/20 10:10:26;;;;;;;6.22;4.68;;;;;;;-140.33;100.00;61596.09;4997476;28;20112;-74
2024/01/20 10:12:57;;;;;;;11.80;8.90;;;;;;;-140.33;100.00;61596.09;5019521;28;20112;-72
2024/01/20 10:15:25;;;;;;;117.88;55.95;;;;;;;-140.33;100.00;61596.09;5015092;28;20029;-74
2024/01/20 10:17:51;;;;;;;38.20;20.05;;;;;;;-140.33;100.00;61596.09;5013355;28;20044;-73
2024/01/20 10:20:31;;;;;;;6.47;4.65;;;;;;;-140.33;100.00;61596.09;4997601;28;20026;-73
2024/01/20 10:22:59;;;;;;;61.15;34.10;;;;;;;-140.33;100.00;61596.09;5018530;28;20030;-74
2024/01/20 10:25:25;;;;;;;16.95;11.10;;;;;;;-140.33;100.00;61596.09;5014077;28;20407;-73
2024/01/20 10:27:50;;;;;;;13.55;8.48;;;;;;;-140.33;100.00;61596.09;4997966;28;20040;-73
2024/01/20 10:30:17;;;;;;;21.08;16.15;;;;;;;-140.33;100.00;61596.09;5013700;28;20088;-74
2024/01/20 10:32:44;;;;;;;15.48;13.23;;;;;;;-140.33;100.00;61596.09;4999838;28;20037;-73
2024/01/20 10:35:10;;;;;;;11.77;10.10;;;;;;;-140.33;100.00;61596.09;5015673;28;20033;-75
2024/01/20 10:37:39;;;;;;;9.02;7.63;;;;;;;-140.33;100.00;61596.09;5017411;28;20392;-73
2024/01/20 10:40:06;;;;;;;5.43;4.28;;;;;;;-140.33;100.00;61596.09;5020464;28;20073;-73
2024/01/20 10:42:32;;;;;;;195.25;108.03;;;;;;;-140.33;100.00;61596.09;5003726;28;20124;-72
2024/01/20 10:45:08;;;;;;;94.22;50.70;;;;;;;-140.33;100.00;61596.09;5014830;28;20121;-77
2024/01/20 10:47:40;;;;;;;214.65;127.22;;;;;;;-140.33;100.00;61596.09;5020661;28;20041;-72
2024/01/20 10:50:08;;;;;;;;;;;;;;;-140.33;100.00;61596.09;5017535;28;20411;-74
2024/01/20 10:52:35;;;;;;;17.13;14.52;;;;;;;-140.33;100.00;61596.09;5019120;28;20028;-76
2024/01/20 10:55:05;;;;;;;19.58;16.10;;;;;;;-140.33;100.00;61596.09;5014250;28;20072;-77
2024/01/20 10:57:31;;;;;;;7.35;4.78;;;;;;;-140.33;100.00;61596.09;4996781;28;20079;-73
2024/01/20 10:59:59;;;;;;;38.35;21.48;;;;;;;-140.33;100.00;61596.09;5002909;28;20045;-72